createdAt,value
2023-05-19T00:02:20.905Z,100948.84
2023-05-19T00:07:22.486Z,100935.84
2023-05-19T00:12:24.139Z,100943.19
2023-05-19T00:17:25.978Z,100938.75
2023-05-19T00:22:28.052Z,100936.28
2023-05-19T00:27:29.515Z,100935.19
2023-05-19T00:32:31.105Z,100933.31
2023-05-19T00:37:32.554Z,100932.47
2023-05-19T00:42:33.982Z,100926.38
2023-05-19T00:47:35.470Z,100933.53
2023-05-19T00:52:36.958Z,100928.91
2023-05-19T00:57:38.386Z,100924.50
2023-05-19T01:02:40.045Z,100928.06
2023-05-19T01:07:41.646Z,100925.34
2023-05-19T01:12:43.099Z,100929.13
2023-05-19T01:18:07.321Z,100920.09
2023-05-19T01:23:31.532Z,100921.75
2023-05-19T01:29:02.659Z,100919.03
2023-05-19T01:34:06.873Z,100914.25
2023-05-19T01:39:08.352Z,100921.16
2023-05-19T01:44:09.884Z,100931.44
2023-05-19T01:49:11.301Z,100922.84
2023-05-19T01:54:12.715Z,100922.44
2023-05-19T01:59:24.317Z,100916.09
2023-05-19T02:04:32.262Z,100912.53
2023-05-19T02:09:59.226Z,100915.25
2023-05-19T02:15:11.764Z,100916.53
2023-05-19T02:20:13.197Z,100914.66
2023-05-19T02:25:14.651Z,100906.44
2023-05-19T02:30:16.257Z,100910.66
2023-05-19T02:35:17.838Z,100912.13
2023-05-19T02:40:19.331Z,100915.47
2023-05-19T02:45:20.759Z,100919.03
2023-05-19T02:50:22.470Z,100910.22
2023-05-19T02:55:23.934Z,100911.50
2023-05-19T03:00:25.454Z,100903.09
2023-05-19T03:05:26.912Z,100898.63
2023-05-19T03:10:28.395Z,100891.88
2023-05-19T03:15:30.528Z,100890.00
2023-05-19T03:20:32.139Z,100892.53
2023-05-19T03:25:33.745Z,100896.47
2023-05-19T03:30:35.327Z,100897.72
2023-05-19T03:35:36.843Z,100896.63
2023-05-19T03:40:38.272Z,100902.09
2023-05-19T03:45:40.065Z,100903.78
2023-05-19T03:50:42.451Z,100917.00
2023-05-19T03:55:44.679Z,100911.94
2023-05-19T04:00:46.095Z,100903.59
2023-05-19T04:05:47.505Z,100906.06
2023-05-19T04:10:48.919Z,100918.47
2023-05-19T04:15:50.365Z,100920.75
2023-05-19T04:20:51.957Z,100918.63
2023-05-19T04:25:54.253Z,100915.88
2023-05-19T04:30:58.567Z,100905.81
2023-05-19T04:36:05.407Z,100909.38
2023-05-19T04:41:10.782Z,100907.69
2023-05-19T04:46:13.950Z,100906.25
2023-05-19T04:51:15.838Z,100903.06
2023-05-19T04:56:17.262Z,100909.09
2023-05-19T05:01:21.297Z,100907.81
2023-05-19T05:06:22.773Z,100911.63
2023-05-19T05:11:24.376Z,100914.34
2023-05-19T05:16:26.410Z,100909.91
2023-05-19T05:21:28.475Z,100907.31
2023-05-19T05:26:31.510Z,100903.53
2023-05-19T05:31:32.985Z,100907.78
2023-05-19T05:36:35.044Z,100912.19
2023-05-19T05:41:36.601Z,100911.94
2023-05-19T05:46:38.188Z,100912.34
2023-05-19T05:51:40.669Z,100921.00
2023-05-19T05:56:42.311Z,100915.75
2023-05-19T06:01:43.858Z,100915.91
2023-05-19T06:06:45.321Z,100922.00
2023-05-19T06:11:46.739Z,100931.25
2023-05-19T06:16:48.233Z,100924.97
2023-05-19T06:21:49.722Z,100926.41
2023-05-19T06:26:51.144Z,100921.09
2023-05-19T06:31:52.721Z,100923.69
2023-05-19T06:36:54.233Z,100916.53
2023-05-19T06:41:55.757Z,100913.75
2023-05-19T06:46:57.257Z,100909.72
2023-05-19T06:51:58.694Z,100903.84
2023-05-19T06:57:00.300Z,100910.63
2023-05-19T07:02:02.385Z,100902.38
2023-05-19T07:07:04.093Z,100902.97
2023-05-19T07:12:05.843Z,100895.44
2023-05-19T07:17:07.294Z,100893.06
2023-05-19T07:22:08.719Z,100890.34
2023-05-19T07:27:10.157Z,100890.13
2023-05-19T07:32:11.644Z,100884.88
2023-05-19T07:37:13.122Z,100887.16
2023-05-19T07:42:14.533Z,100882.09
2023-05-19T07:47:15.967Z,100875.16
2023-05-19T07:52:18.186Z,100862.19
2023-05-19T07:57:19.754Z,100871.59
2023-05-19T08:02:21.207Z,100873.03
2023-05-19T08:07:22.667Z,100875.41
2023-05-19T08:12:24.093Z,100867.66
2023-05-19T08:17:25.614Z,100865.06
2023-05-19T08:22:27.091Z,100861.50
2023-05-19T08:27:28.645Z,100870.16
2023-05-19T08:32:30.154Z,100868.41
2023-05-19T08:37:34.004Z,100853.47
2023-05-19T08:42:35.697Z,100845.69
2023-05-19T08:47:38.220Z,100847.22
2023-05-19T08:52:57.579Z,100841.50
2023-05-19T08:57:59.574Z,100852.44
2023-05-19T09:03:17.725Z,100847.63
2023-05-19T09:08:22.551Z,100836.03
2023-05-19T09:13:24.041Z,100841.94
2023-05-19T09:18:26.317Z,100837.31
2023-05-19T09:23:33.999Z,100833.72
2023-05-19T09:28:36.278Z,100832.00
2023-05-19T09:33:45.540Z,100833.72
2023-05-19T09:38:47.419Z,100836.22
2023-05-19T09:43:54.535Z,100831.41
2023-05-19T09:48:58.781Z,100828.47
2023-05-19T09:54:00.222Z,100821.91
2023-05-19T09:59:03.429Z,100821.06
2023-05-19T10:04:05.978Z,100823.66
2023-05-19T10:09:07.584Z,100800.72
2023-05-19T10:14:09.009Z,100806.13
2023-05-19T10:19:10.461Z,100808.69
2023-05-19T10:24:13.348Z,100810.59
2023-05-19T10:29:15.991Z,100803.22
2023-05-19T10:34:33.539Z,100795.88
2023-05-19T10:39:37.837Z,100781.34
2023-05-19T10:45:01.220Z,100795.47
2023-05-19T10:50:04.310Z,100785.75
2023-05-19T10:55:09.951Z,100788.25
2023-05-19T11:00:31.128Z,100779.25
2023-05-19T11:05:32.650Z,100785.97
2023-05-19T11:10:34.255Z,100784.72
2023-05-19T11:15:38.532Z,100784.88
2023-05-19T11:20:39.963Z,100778.63
2023-05-19T11:25:48.200Z,100775.88
2023-05-19T11:30:50.527Z,100770.59
2023-05-19T11:35:52.192Z,100780.47
2023-05-19T11:40:53.848Z,100765.56
2023-05-19T11:45:55.579Z,100775.66
2023-05-19T11:50:57.110Z,100766.78
2023-05-19T11:55:58.520Z,100770.13
2023-05-19T12:01:03.879Z,100769.78
2023-05-19T12:06:08.127Z,100775.44
2023-05-19T12:11:09.686Z,100775.38
2023-05-19T12:16:11.467Z,100775.97
2023-05-19T12:21:12.917Z,100784.88
2023-05-19T12:26:14.368Z,100777.31
2023-05-19T12:31:15.976Z,100758.13
2023-05-19T12:36:17.958Z,100764.22
2023-05-19T12:41:19.443Z,100769.06
2023-05-19T12:46:22.436Z,100765.34
2023-05-19T12:51:23.975Z,100765.94
2023-05-19T12:56:26.860Z,100753.25
2023-05-19T13:01:29.052Z,100746.97
2023-05-19T13:06:30.621Z,100752.28
2023-05-19T13:11:32.058Z,100745.50
2023-05-19T13:16:33.521Z,100745.91
2023-05-19T13:21:35.492Z,100753.13
2023-05-19T13:26:36.895Z,100756.47
2023-05-19T13:31:38.430Z,100744.91
2023-05-19T13:36:40.034Z,100749.53
2023-05-19T13:41:41.510Z,100737.69
2023-05-19T13:46:45.368Z,100744.72
2023-05-19T13:51:48.371Z,100740.88
2023-05-19T13:56:50.240Z,100744.00
2023-05-19T14:01:51.887Z,100739.59
2023-05-19T14:06:53.376Z,100743.16
2023-05-19T14:11:54.845Z,100744.06
2023-05-19T14:16:56.271Z,100746.59
2023-05-19T14:21:57.692Z,100748.63
2023-05-19T14:26:59.240Z,100747.19
2023-05-19T14:32:00.925Z,100746.88
2023-05-19T14:37:02.676Z,100739.03
2023-05-19T14:42:04.170Z,100745.75
2023-05-19T14:47:07.274Z,100746.59
2023-05-19T14:52:08.816Z,100740.75
2023-05-19T14:57:10.267Z,100741.88
2023-05-19T15:02:12.769Z,100749.97
2023-05-19T15:07:14.192Z,100747.22
2023-05-19T15:12:15.675Z,100751.25
2023-05-19T15:17:17.202Z,100755.53
2023-05-19T15:22:18.682Z,100760.91
2023-05-19T15:27:20.741Z,100756.91
2023-05-19T15:32:22.189Z,100755.88
2023-05-19T15:37:23.796Z,100758.63
2023-05-19T15:42:25.959Z,100761.75
2023-05-19T15:47:27.537Z,100778.16
2023-05-19T15:52:29.236Z,100777.78
2023-05-19T15:57:30.706Z,100775.88
2023-05-19T16:02:32.255Z,100784.25
2023-05-19T16:07:33.760Z,100781.75
2023-05-19T16:12:36.381Z,100798.22
2023-05-19T16:17:37.862Z,100794.03
2023-05-19T16:22:39.355Z,100792.28
2023-05-19T16:27:40.792Z,100795.88
2023-05-19T16:32:42.421Z,100799.28
2023-05-19T16:37:43.876Z,100801.41
2023-05-19T16:42:45.399Z,100798.31
2023-05-19T16:47:46.869Z,100806.88
2023-05-19T16:52:48.351Z,100805.47
2023-05-19T16:57:49.767Z,100811.34
2023-05-19T17:02:51.341Z,100803.97
2023-05-19T17:07:52.878Z,100798.75
2023-05-19T17:12:54.313Z,100795.84
2023-05-19T17:17:55.808Z,100798.50
2023-05-19T17:22:57.562Z,100802.38
2023-05-19T17:27:59.017Z,100802.59
2023-05-19T17:33:00.588Z,100805.94
2023-05-19T17:38:02.044Z,100806.63
2023-05-19T17:43:03.656Z,100812.69
2023-05-19T17:48:05.512Z,100813.97
2023-05-19T17:53:07.102Z,100822.81
2023-05-19T17:58:08.756Z,100813.53
2023-05-19T18:03:10.241Z,100795.09
2023-05-19T18:08:13.044Z,100796.13
2023-05-19T18:13:14.470Z,100804.72
2023-05-19T18:18:16.156Z,100797.56
2023-05-19T18:23:18.103Z,100809.03
2023-05-19T18:28:20.345Z,100803.72
2023-05-19T18:33:24.113Z,100807.50
2023-05-19T18:38:26.681Z,100804.19
2023-05-19T18:43:30.017Z,100796.81
2023-05-19T18:48:33.034Z,100811.47
2023-05-19T18:53:37.323Z,100803.34
2023-05-19T18:58:38.750Z,100813.22
2023-05-19T19:03:41.768Z,100814.28
2023-05-19T19:08:43.909Z,100826.03
2023-05-19T19:13:45.414Z,100819.97
2023-05-19T19:18:46.944Z,100810.69
2023-05-19T19:23:48.524Z,100814.50
2023-05-19T19:28:49.938Z,100825.22
2023-05-19T19:33:51.436Z,100821.88
2023-05-19T19:38:52.877Z,100818.50
2023-05-19T19:43:54.353Z,100820.25
2023-05-19T19:49:01.552Z,100830.16
2023-05-19T19:54:03.011Z,100820.03
2023-05-19T19:59:04.446Z,100826.50
2023-05-19T20:04:06.138Z,100819.34
2023-05-19T20:09:07.602Z,100821.31
2023-05-19T20:14:09.150Z,100825.09
2023-05-19T20:19:11.765Z,100825.09
2023-05-19T20:24:13.235Z,100822.81
2023-05-19T20:29:14.709Z,100824.06
2023-05-19T20:34:16.212Z,100827.38
2023-05-19T20:39:17.634Z,100824.66
2023-05-19T20:44:19.160Z,100830.28
2023-05-19T20:49:20.742Z,100826.94
2023-05-19T20:54:22.208Z,100829.72
2023-05-19T20:59:23.751Z,100824.06
2023-05-19T21:04:25.227Z,100824.06
2023-05-19T21:09:26.706Z,100815.84
2023-05-19T21:14:28.150Z,100814.78
2023-05-19T21:19:29.703Z,100826.09
2023-05-19T21:24:31.181Z,100817.31
2023-05-19T21:29:32.590Z,100825.50
2023-05-19T21:34:34.156Z,100829.72
2023-05-19T21:39:35.654Z,100837.09
2023-05-19T21:44:37.115Z,100832.06
2023-05-19T21:49:40.003Z,100829.97
2023-05-19T21:54:41.465Z,100833.75
2023-05-19T21:59:43.870Z,100823.66
2023-05-19T22:04:45.575Z,100818.41
2023-05-19T22:09:48.926Z,100818.41
2023-05-19T22:14:50.590Z,100819.47
2023-05-19T22:19:52.020Z,100830.41
2023-05-19T22:24:53.453Z,100826.00
2023-05-19T22:29:54.865Z,100826.22
2023-05-19T22:34:56.294Z,100819.91
2023-05-19T22:39:57.702Z,100809.00
2023-05-19T22:44:59.193Z,100814.47
2023-05-19T22:50:00.621Z,100814.22
2023-05-19T22:55:02.043Z,100809.00
2023-05-19T23:00:03.905Z,100801.00
2023-05-19T23:05:05.747Z,100795.53
2023-05-19T23:10:07.514Z,100790.91
2023-05-19T23:15:11.879Z,100793.03
2023-05-19T23:20:13.328Z,100801.25
2023-05-19T23:25:14.754Z,100814.91
2023-05-19T23:30:16.174Z,100809.44
2023-05-19T23:35:17.708Z,100811.56
2023-05-19T23:40:19.137Z,100806.91
2023-05-19T23:45:20.599Z,100809.28
2023-05-19T23:50:22.135Z,100806.91
2023-05-19T23:55:23.602Z,100804.41
